Manitou, Kentucky
Current Conditions -  °F | °C
As of 8:35 PM on Friday 24 Oct 2014 (Local Time) from K2I0 Reporting Station
Scattered Clouds Scattered Clouds  
Wind Chill: 54°   Ceiling: Unl
Heat Index: 54°   Visibility: 10mi
Dew Point: 52°   Wind: 0mph
Humidity: 92%   Direction: NA
Pressure: 30.07"   Gusts: NA
Location:  37.37°N, 87.58°W
Report Text: K2I0 250135Z AUTO 00000KT 10SM SCT045 12/11 A3007 RMK AO2 T01240111
Loading
Personal Weather Stations






























Interactive Weather Map
Tropical Storm Tracking
New forecast layout! Learn more

10-Day Weather Forecast

Advertisements
Track Severe Weather on mobile